N61 weather

Public forecast

Using degrees Fahrenheit for public forecast. Weather courtesy of forecast.io.

Closest aviation weather report (METAR) to Hinshaw (Greenacres) Airport

Closest report is Siler City Municipal Airport, 10.2 nm (19.0 km) S. Retrieved 2020/08/13 08:35 UTC (20 minutes ago):

KSCR 130835Z AUTO 01003KT 10SM CLR 23/23 A3002 RMK AO2 T02270226

Closest aviation forecast (TAF) to Hinshaw (Greenacres) Airport

Closest forecast is Piedmont Triad International Airport, 24.0 nm (44.5 km) NW. Retrieved 2020/08/13 06:48 UTC (2 hours ago):

TAF KGSO 130540Z 1306/1406 VRB03KT P6SM VCSH SCT035 SCT100 BKN250 TEMPO 1311/1313 4SM BR BKN004 FM140100 04003KT 5SM -SHRA VCTS SCT030 BKN040CB OVC110